Terminal Aerodrome Forecast
Issued by NWS Milwaukee/Sullivan, WI

Home | Current Version | Previous Version | Text Only | Print | Product List | Glossary On
Versions: 1 2 3 4 5 6 7 8 9 10 11 12 13 14 15 16 17 18 19 20 21 22 23 24 25 26 27 28 29 30 31 32 33 34 35 36 37 38 39 40 41 42 43 44 45 46 47 48
000
FTUS43 KMKX 061120
TAFMKE
TAF
KMKE 061120Z 0612/0718 22009KT P6SM SKC
     FM061600 21013G22KT P6SM BKN120
     FM070000 23011KT P6SM SCT025
     FM070100 24010KT P6SM SCT250
     FM070600 25008KT P6SM BKN110
     FM071500 25010KT P6SM SCT150=

USA.gov is the U.S. government's official web portal to all federal, state and local government web resources and services.